sensor_id;sensor_type;location;lat;lon;timestamp;P1;durP1;ratioP1;P2;durP2;ratioP2
18239;SDS011;9244;50.828;4.718;2023-08-21T00:01:14;5.03;;;2.50;;
18239;SDS011;9244;50.828;4.718;2023-08-21T00:03:40;6.38;;;2.40;;
18239;SDS011;9244;50.828;4.718;2023-08-21T00:06:06;8.45;;;2.50;;
18239;SDS011;9244;50.828;4.718;2023-08-21T00:08:31;5.15;;;2.47;;
18239;SDS011;9244;50.828;4.718;2023-08-21T00:10:57;6.45;;;2.10;;
18239;SDS011;9244;50.828;4.718;2023-08-21T00:13:22;6.55;;;2.38;;
18239;SDS011;9244;50.828;4.718;2023-08-21T00:15:48;7.05;;;2.70;;
18239;SDS011;9244;50.828;4.718;2023-08-21T00:18:14;4.95;;;2.50;;
18239;SDS011;9244;50.828;4.718;2023-08-21T00:20:39;5.47;;;2.47;;
18239;SDS011;9244;50.828;4.718;2023-08-21T00:23:06;6.25;;;2.40;;
18239;SDS011;9244;50.828;4.718;2023-08-21T00:25:33;5.20;;;2.58;;
18239;SDS011;9244;50.828;4.718;2023-08-21T00:27:59;5.97;;;2.55;;
18239;SDS011;9244;50.828;4.718;2023-08-21T00:30:25;6.32;;;2.28;;
18239;SDS011;9244;50.828;4.718;2023-08-21T00:32:51;4.53;;;1.98;;
18239;SDS011;9244;50.828;4.718;2023-08-21T00:35:16;6.30;;;2.45;;
18239;SDS011;9244;50.828;4.718;2023-08-21T00:37:42;5.10;;;2.35;;
18239;SDS011;9244;50.828;4.718;2023-08-21T00:40:07;4.22;;;2.22;;
18239;SDS011;9244;50.828;4.718;2023-08-21T00:42:33;8.88;;;2.40;;
18239;SDS011;9244;50.828;4.718;2023-08-21T00:44:59;3.60;;;1.73;;
18239;SDS011;9244;50.828;4.718;2023-08-21T00:47:25;5.05;;;2.30;;
18239;SDS011;9244;50.828;4.718;2023-08-21T00:49:50;6.85;;;2.50;;
18239;SDS011;9244;50.828;4.718;2023-08-21T00:52:16;5.38;;;2.13;;
18239;SDS011;9244;50.828;4.718;2023-08-21T00:54:42;5.10;;;2.47;;
18239;SDS011;9244;50.828;4.718;2023-08-21T00:57:09;6.00;;;2.50;;
18239;SDS011;9244;50.828;4.718;2023-08-21T00:59:36;8.88;;;2.35;;
18239;SDS011;9244;50.828;4.718;2023-08-21T01:02:03;5.65;;;2.40;;
18239;SDS011;9244;50.828;4.718;2023-08-21T01:04:28;4.82;;;2.17;;
18239;SDS011;9244;50.828;4.718;2023-08-21T01:06:54;4.43;;;1.98;;
18239;SDS011;9244;50.828;4.718;2023-08-21T01:14:59;6.47;;;2.13;;
18239;SDS011;9244;50.828;4.718;2023-08-21T01:17:28;6.07;;;2.63;;
18239;SDS011;9244;50.828;4.718;2023-08-21T01:19:55;4.05;;;2.28;;
18239;SDS011;9244;50.828;4.718;2023-08-21T01:22:27;5.97;;;2.67;;
18239;SDS011;9244;50.828;4.718;2023-08-21T01:24:59;5.20;;;2.42;;
18239;SDS011;9244;50.828;4.718;2023-08-21T01:27:25;3.95;;;2.35;;
18239;SDS011;9244;50.828;4.718;2023-08-21T01:29:51;6.25;;;2.42;;
18239;SDS011;9244;50.828;4.718;2023-08-21T01:35:06;6.65;;;2.50;;
18239;SDS011;9244;50.828;4.718;2023-08-21T01:37:34;5.25;;;2.40;;
18239;SDS011;9244;50.828;4.718;2023-08-21T01:40:00;10.50;;;2.50;;
18239;SDS011;9244;50.828;4.718;2023-08-21T01:42:26;6.55;;;2.63;;
18239;SDS011;9244;50.828;4.718;2023-08-21T01:44:51;4.63;;;2.33;;
18239;SDS011;9244;50.828;4.718;2023-08-21T01:47:17;5.65;;;2.03;;
18239;SDS011;9244;50.828;4.718;2023-08-21T01:49:42;4.35;;;2.30;;
18239;SDS011;9244;50.828;4.718;2023-08-21T01:52:08;6.03;;;2.35;;
18239;SDS011;9244;50.828;4.718;2023-08-21T01:54:34;5.28;;;2.30;;
18239;SDS011;9244;50.828;4.718;2023-08-21T01:57:00;5.50;;;1.90;;
18239;SDS011;9244;50.828;4.718;2023-08-21T01:59:26;3.63;;;2.10;;
18239;SDS011;9244;50.828;4.718;2023-08-21T02:01:51;4.80;;;2.15;;
18239;SDS011;9244;50.828;4.718;2023-08-21T02:04:17;6.75;;;2.70;;
18239;SDS011;9244;50.828;4.718;2023-08-21T02:06:42;5.32;;;2.33;;
18239;SDS011;9244;50.828;4.718;2023-08-21T02:09:09;7.00;;;2.25;;
18239;SDS011;9244;50.828;4.718;2023-08-21T02:11:35;7.07;;;2.88;;
18239;SDS011;9244;50.828;4.718;2023-08-21T02:14:00;5.78;;;2.33;;
18239;SDS011;9244;50.828;4.718;2023-08-21T02:16:26;6.10;;;2.65;;
18239;SDS011;9244;50.828;4.718;2023-08-21T02:18:52;6.32;;;2.38;;
18239;SDS011;9244;50.828;4.718;2023-08-21T02:21:17;6.38;;;2.42;;
18239;SDS011;9244;50.828;4.718;2023-08-21T02:23:43;5.18;;;2.65;;
18239;SDS011;9244;50.828;4.718;2023-08-21T02:26:09;3.75;;;2.13;;
18239;SDS011;9244;50.828;4.718;2023-08-21T02:28:34;7.78;;;2.33;;
18239;SDS011;9244;50.828;4.718;2023-08-21T02:31:00;6.32;;;2.20;;
18239;SDS011;9244;50.828;4.718;2023-08-21T02:33:25;3.33;;;2.20;;
18239;SDS011;9244;50.828;4.718;2023-08-21T02:35:51;5.35;;;2.38;;
18239;SDS011;9244;50.828;4.718;2023-08-21T02:38:17;5.03;;;2.33;;
18239;SDS011;9244;50.828;4.718;2023-08-21T02:40:42;5.45;;;2.60;;
18239;SDS011;9244;50.828;4.718;2023-08-21T02:43:08;4.13;;;1.95;;
18239;SDS011;9244;50.828;4.718;2023-08-21T02:45:33;5.57;;;2.78;;
18239;SDS011;9244;50.828;4.718;2023-08-21T02:47:59;5.45;;;2.55;;
18239;SDS011;9244;50.828;4.718;2023-08-21T02:50:25;4.55;;;2.20;;
18239;SDS011;9244;50.828;4.718;2023-08-21T02:52:50;5.35;;;2.20;;
18239;SDS011;9244;50.828;4.718;2023-08-21T02:55:16;4.22;;;2.13;;
18239;SDS011;9244;50.828;4.718;2023-08-21T02:57:41;6.47;;;2.53;;
18239;SDS011;9244;50.828;4.718;2023-08-21T03:00:07;6.35;;;2.40;;
18239;SDS011;9244;50.828;4.718;2023-08-21T03:02:33;4.63;;;2.33;;
18239;SDS011;9244;50.828;4.718;2023-08-21T03:04:59;3.08;;;2.10;;
18239;SDS011;9244;50.828;4.718;2023-08-21T03:07:25;8.32;;;2.30;;
18239;SDS011;9244;50.828;4.718;2023-08-21T03:09:50;4.75;;;2.45;;
18239;SDS011;9244;50.828;4.718;2023-08-21T03:12:16;8.35;;;2.58;;
18239;SDS011;9244;50.828;4.718;2023-08-21T03:14:42;5.35;;;2.28;;
18239;SDS011;9244;50.828;4.718;2023-08-21T03:17:07;3.80;;;2.30;;
18239;SDS011;9244;50.828;4.718;2023-08-21T03:19:33;6.80;;;2.42;;
18239;SDS011;9244;50.828;4.718;2023-08-21T03:21:59;5.13;;;2.40;;
18239;SDS011;9244;50.828;4.718;2023-08-21T03:24:25;3.55;;;2.40;;
18239;SDS011;9244;50.828;4.718;2023-08-21T03:26:50;5.60;;;2.40;;
18239;SDS011;9244;50.828;4.718;2023-08-21T03:29:16;4.35;;;2.03;;
18239;SDS011;9244;50.828;4.718;2023-08-21T03:31:42;4.53;;;2.38;;
18239;SDS011;9244;50.828;4.718;2023-08-21T03:34:07;4.68;;;2.60;;
18239;SDS011;9244;50.828;4.718;2023-08-21T03:36:33;5.68;;;2.42;;
18239;SDS011;9244;50.828;4.718;2023-08-21T03:39:01;5.05;;;2.63;;
18239;SDS011;9244;50.828;4.718;2023-08-21T03:41:28;4.88;;;2.00;;
18239;SDS011;9244;50.828;4.718;2023-08-21T03:43:54;5.43;;;2.45;;
18239;SDS011;9244;50.828;4.718;2023-08-21T03:46:20;6.53;;;2.63;;
18239;SDS011;9244;50.828;4.718;2023-08-21T03:48:45;3.47;;;2.05;;
18239;SDS011;9244;50.828;4.718;2023-08-21T03:51:11;4.30;;;2.58;;
18239;SDS011;9244;50.828;4.718;2023-08-21T03:53:37;5.15;;;2.22;;
18239;SDS011;9244;50.828;4.718;2023-08-21T03:56:02;4.15;;;2.50;;
18239;SDS011;9244;50.828;4.718;2023-08-21T03:58:28;5.35;;;2.40;;
18239;SDS011;9244;50.828;4.718;2023-08-21T04:00:54;4.00;;;2.15;;
18239;SDS011;9244;50.828;4.718;2023-08-21T04:03:20;6.65;;;3.13;;
18239;SDS011;9244;50.828;4.718;2023-08-21T04:05:46;4.38;;;2.55;;
18239;SDS011;9244;50.828;4.718;2023-08-21T04:08:11;5.10;;;2.25;;
18239;SDS011;9244;50.828;4.718;2023-08-21T04:10:37;7.15;;;3.22;;
18239;SDS011;9244;50.828;4.718;2023-08-21T04:13:03;7.07;;;2.85;;
18239;SDS011;9244;50.828;4.718;2023-08-21T04:15:29;8.25;;;2.97;;
18239;SDS011;9244;50.828;4.718;2023-08-21T04:17:55;4.20;;;2.65;;
18239;SDS011;9244;50.828;4.718;2023-08-21T04:20:21;7.60;;;3.30;;
18239;SDS011;9244;50.828;4.718;2023-08-21T04:22:47;5.72;;;3.22;;
18239;SDS011;9244;50.828;4.718;2023-08-21T04:25:13;4.78;;;2.70;;
18239;SDS011;9244;50.828;4.718;2023-08-21T04:27:39;4.78;;;2.60;;
18239;SDS011;9244;50.828;4.718;2023-08-21T04:30:04;7.75;;;3.20;;
18239;SDS011;9244;50.828;4.718;2023-08-21T04:32:30;5.97;;;2.67;;
18239;SDS011;9244;50.828;4.718;2023-08-21T04:34:56;9.73;;;3.10;;
18239;SDS011;9244;50.828;4.718;2023-08-21T04:37:22;5.53;;;2.97;;
18239;SDS011;9244;50.828;4.718;2023-08-21T04:39:51;6.25;;;3.20;;
18239;SDS011;9244;50.828;4.718;2023-08-21T04:42:18;4.47;;;2.78;;
18239;SDS011;9244;50.828;4.718;2023-08-21T04:44:44;7.72;;;3.42;;
18239;SDS011;9244;50.828;4.718;2023-08-21T04:47:23;6.68;;;2.90;;
18239;SDS011;9244;50.828;4.718;2023-08-21T04:49:53;5.43;;;2.88;;
18239;SDS011;9244;50.828;4.718;2023-08-21T04:52:19;4.50;;;2.40;;
18239;SDS011;9244;50.828;4.718;2023-08-21T04:54:45;5.00;;;2.90;;
18239;SDS011;9244;50.828;4.718;2023-08-21T04:57:12;11.02;;;3.40;;
18239;SDS011;9244;50.828;4.718;2023-08-21T04:59:38;5.00;;;2.45;;
18239;SDS011;9244;50.828;4.718;2023-08-21T05:02:04;7.05;;;2.75;;
18239;SDS011;9244;50.828;4.718;2023-08-21T05:04:29;5.78;;;2.90;;
18239;SDS011;9244;50.828;4.718;2023-08-21T05:06:55;5.10;;;3.30;;
18239;SDS011;9244;50.828;4.718;2023-08-21T05:09:21;4.78;;;2.83;;
18239;SDS011;9244;50.828;4.718;2023-08-21T05:11:46;6.03;;;2.88;;
18239;SDS011;9244;50.828;4.718;2023-08-21T05:14:12;6.38;;;3.45;;
18239;SDS011;9244;50.828;4.718;2023-08-21T05:16:38;4.53;;;2.40;;
18239;SDS011;9244;50.828;4.718;2023-08-21T05:19:03;7.18;;;2.95;;
18239;SDS011;9244;50.828;4.718;2023-08-21T05:21:29;4.75;;;3.00;;
18239;SDS011;9244;50.828;4.718;2023-08-21T05:23:54;5.10;;;3.20;;
18239;SDS011;9244;50.828;4.718;2023-08-21T05:26:20;6.35;;;3.50;;
18239;SDS011;9244;50.828;4.718;2023-08-21T05:28:46;5.63;;;3.05;;
18239;SDS011;9244;50.828;4.718;2023-08-21T05:31:11;3.80;;;3.00;;
18239;SDS011;9244;50.828;4.718;2023-08-21T05:33:37;6.88;;;3.15;;
18239;SDS011;9244;50.828;4.718;2023-08-21T05:36:04;6.70;;;3.00;;
18239;SDS011;9244;50.828;4.718;2023-08-21T05:38:30;7.22;;;3.25;;
18239;SDS011;9244;50.828;4.718;2023-08-21T05:40:55;4.82;;;3.05;;
18239;SDS011;9244;50.828;4.718;2023-08-21T05:43:21;7.00;;;2.70;;
18239;SDS011;9244;50.828;4.718;2023-08-21T05:45:47;6.95;;;2.88;;
18239;SDS011;9244;50.828;4.718;2023-08-21T05:48:13;4.47;;;2.63;;
18239;SDS011;9244;50.828;4.718;2023-08-21T05:50:38;6.85;;;2.95;;
18239;SDS011;9244;50.828;4.718;2023-08-21T05:53:04;7.45;;;3.13;;
18239;SDS011;9244;50.828;4.718;2023-08-21T05:55:30;5.38;;;2.88;;
18239;SDS011;9244;50.828;4.718;2023-08-21T05:57:57;10.40;;;2.90;;
18239;SDS011;9244;50.828;4.718;2023-08-21T06:00:22;6.32;;;2.70;;
18239;SDS011;9244;50.828;4.718;2023-08-21T06:02:48;8.70;;;2.90;;
18239;SDS011;9244;50.828;4.718;2023-08-21T06:05:13;6.18;;;2.55;;
18239;SDS011;9244;50.828;4.718;2023-08-21T06:07:39;5.28;;;2.20;;
18239;SDS011;9244;50.828;4.718;2023-08-21T06:10:06;10.07;;;2.97;;
18239;SDS011;9244;50.828;4.718;2023-08-21T06:12:37;6.63;;;2.45;;
18239;SDS011;9244;50.828;4.718;2023-08-21T06:15:06;7.75;;;2.55;;
18239;SDS011;9244;50.828;4.718;2023-08-21T06:17:36;7.38;;;2.65;;
18239;SDS011;9244;50.828;4.718;2023-08-21T06:20:03;6.35;;;2.55;;
18239;SDS011;9244;50.828;4.718;2023-08-21T06:22:38;5.38;;;2.70;;
18239;SDS011;9244;50.828;4.718;2023-08-21T06:25:04;6.97;;;2.55;;
18239;SDS011;9244;50.828;4.718;2023-08-21T06:27:30;4.25;;;2.25;;
18239;SDS011;9244;50.828;4.718;2023-08-21T06:29:56;6.57;;;2.53;;
18239;SDS011;9244;50.828;4.718;2023-08-21T06:32:21;4.65;;;1.98;;
18239;SDS011;9244;50.828;4.718;2023-08-21T06:34:48;7.22;;;2.22;;
18239;SDS011;9244;50.828;4.718;2023-08-21T06:37:13;5.25;;;2.08;;
18239;SDS011;9244;50.828;4.718;2023-08-21T06:39:39;7.07;;;2.65;;
18239;SDS011;9244;50.828;4.718;2023-08-21T06:42:05;6.78;;;2.22;;
18239;SDS011;9244;50.828;4.718;2023-08-21T06:44:30;4.75;;;2.00;;
18239;SDS011;9244;50.828;4.718;2023-08-21T06:46:56;6.88;;;2.17;;
18239;SDS011;9244;50.828;4.718;2023-08-21T06:49:22;7.00;;;2.17;;
18239;SDS011;9244;50.828;4.718;2023-08-21T06:51:48;6.78;;;1.90;;
18239;SDS011;9244;50.828;4.718;2023-08-21T06:54:14;4.65;;;2.13;;
18239;SDS011;9244;50.828;4.718;2023-08-21T06:56:40;7.45;;;2.28;;
18239;SDS011;9244;50.828;4.718;2023-08-21T06:59:05;7.90;;;2.47;;
18239;SDS011;9244;50.828;4.718;2023-08-21T07:01:31;9.10;;;2.00;;
18239;SDS011;9244;50.828;4.718;2023-08-21T07:03:56;6.72;;;2.55;;
18239;SDS011;9244;50.828;4.718;2023-08-21T07:06:22;4.13;;;1.95;;
18239;SDS011;9244;50.828;4.718;2023-08-21T07:08:48;5.20;;;2.35;;
18239;SDS011;9244;50.828;4.718;2023-08-21T07:11:13;4.15;;;2.15;;
18239;SDS011;9244;50.828;4.718;2023-08-21T07:13:39;3.70;;;1.85;;
18239;SDS011;9244;50.828;4.718;2023-08-21T07:16:05;6.88;;;2.13;;
18239;SDS011;9244;50.828;4.718;2023-08-21T07:18:34;6.07;;;1.90;;
18239;SDS011;9244;50.828;4.718;2023-08-21T07:21:01;4.40;;;1.92;;
18239;SDS011;9244;50.828;4.718;2023-08-21T07:23:29;4.05;;;1.92;;
18239;SDS011;9244;50.828;4.718;2023-08-21T07:25:55;6.13;;;2.15;;
18239;SDS011;9244;50.828;4.718;2023-08-21T07:28:20;5.03;;;2.13;;
18239;SDS011;9244;50.828;4.718;2023-08-21T07:30:46;6.63;;;2.03;;
18239;SDS011;9244;50.828;4.718;2023-08-21T07:33:12;5.20;;;2.03;;
18239;SDS011;9244;50.828;4.718;2023-08-21T07:35:37;5.55;;;2.00;;
18239;SDS011;9244;50.828;4.718;2023-08-21T07:38:03;6.43;;;2.25;;
18239;SDS011;9244;50.828;4.718;2023-08-21T07:40:29;5.43;;;2.08;;
18239;SDS011;9244;50.828;4.718;2023-08-21T07:42:54;6.07;;;1.88;;
18239;SDS011;9244;50.828;4.718;2023-08-21T07:45:20;5.05;;;2.10;;
18239;SDS011;9244;50.828;4.718;2023-08-21T07:47:46;6.30;;;2.05;;
18239;SDS011;9244;50.828;4.718;2023-08-21T07:50:12;4.63;;;2.00;;
18239;SDS011;9244;50.828;4.718;2023-08-21T07:52:39;5.47;;;2.17;;
18239;SDS011;9244;50.828;4.718;2023-08-21T07:55:05;7.45;;;1.95;;
18239;SDS011;9244;50.828;4.718;2023-08-21T07:57:31;4.95;;;2.05;;
18239;SDS011;9244;50.828;4.718;2023-08-21T07:59:57;5.22;;;2.30;;
18239;SDS011;9244;50.828;4.718;2023-08-21T08:02:23;6.38;;;1.85;;
18239;SDS011;9244;50.828;4.718;2023-08-21T08:04:49;6.90;;;2.05;;
18239;SDS011;9244;50.828;4.718;2023-08-21T08:07:14;7.35;;;2.20;;
18239;SDS011;9244;50.828;4.718;2023-08-21T08:09:40;6.65;;;2.10;;
18239;SDS011;9244;50.828;4.718;2023-08-21T08:12:06;6.90;;;2.10;;
18239;SDS011;9244;50.828;4.718;2023-08-21T08:14:32;5.72;;;2.08;;
18239;SDS011;9244;50.828;4.718;2023-08-21T08:16:57;6.30;;;1.73;;
18239;SDS011;9244;50.828;4.718;2023-08-21T08:19:23;5.30;;;1.90;;
18239;SDS011;9244;50.828;4.718;2023-08-21T08:21:49;4.25;;;1.98;;
18239;SDS011;9244;50.828;4.718;2023-08-21T08:24:14;5.07;;;2.33;;
18239;SDS011;9244;50.828;4.718;2023-08-21T08:26:40;3.53;;;1.90;;
18239;SDS011;9244;50.828;4.718;2023-08-21T08:29:07;9.15;;;2.53;;
18239;SDS011;9244;50.828;4.718;2023-08-21T08:31:33;6.15;;;2.10;;
18239;SDS011;9244;50.828;4.718;2023-08-21T08:33:59;5.68;;;1.98;;
18239;SDS011;9244;50.828;4.718;2023-08-21T08:36:25;6.65;;;2.10;;
18239;SDS011;9244;50.828;4.718;2023-08-21T08:38:50;6.22;;;2.35;;
18239;SDS011;9244;50.828;4.718;2023-08-21T08:41:24;5.47;;;1.98;;
18239;SDS011;9244;50.828;4.718;2023-08-21T08:43:55;5.82;;;2.30;;
18239;SDS011;9244;50.828;4.718;2023-08-21T08:46:23;5.65;;;2.40;;
18239;SDS011;9244;50.828;4.718;2023-08-21T08:48:50;8.57;;;2.03;;
18239;SDS011;9244;50.828;4.718;2023-08-21T08:51:19;7.60;;;2.00;;
18239;SDS011;9244;50.828;4.718;2023-08-21T08:53:44;6.68;;;1.70;;
18239;SDS011;9244;50.828;4.718;2023-08-21T08:56:10;4.78;;;1.85;;
18239;SDS011;9244;50.828;4.718;2023-08-21T08:58:36;5.47;;;1.88;;
18239;SDS011;9244;50.828;4.718;2023-08-21T09:01:01;5.68;;;1.90;;
18239;SDS011;9244;50.828;4.718;2023-08-21T09:03:28;7.53;;;2.15;;
18239;SDS011;9244;50.828;4.718;2023-08-21T09:05:54;4.50;;;1.67;;
18239;SDS011;9244;50.828;4.718;2023-08-21T09:08:20;4.93;;;1.92;;
18239;SDS011;9244;50.828;4.718;2023-08-21T09:10:46;5.30;;;1.98;;
18239;SDS011;9244;50.828;4.718;2023-08-21T09:13:15;5.68;;;1.80;;
18239;SDS011;9244;50.828;4.718;2023-08-21T09:15:48;4.35;;;1.60;;
18239;SDS011;9244;50.828;4.718;2023-08-21T09:18:18;6.10;;;1.90;;
18239;SDS011;9244;50.828;4.718;2023-08-21T09:20:43;5.03;;;1.95;;
18239;SDS011;9244;50.828;4.718;2023-08-21T09:23:13;4.95;;;1.80;;
18239;SDS011;9244;50.828;4.718;2023-08-21T09:25:39;5.47;;;2.28;;
18239;SDS011;9244;50.828;4.718;2023-08-21T09:28:06;5.20;;;1.77;;
18239;SDS011;9244;50.828;4.718;2023-08-21T09:30:46;7.40;;;2.35;;
18239;SDS011;9244;50.828;4.718;2023-08-21T09:33:16;5.97;;;1.52;;
18239;SDS011;9244;50.828;4.718;2023-08-21T09:35:43;4.35;;;1.65;;
18239;SDS011;9244;50.828;4.718;2023-08-21T09:38:09;5.38;;;1.80;;
18239;SDS011;9244;50.828;4.718;2023-08-21T09:40:39;4.32;;;1.77;;
18239;SDS011;9244;50.828;4.718;2023-08-21T09:43:06;4.07;;;1.65;;
18239;SDS011;9244;50.828;4.718;2023-08-21T09:45:33;7.13;;;2.00;;
18239;SDS011;9244;50.828;4.718;2023-08-21T09:47:59;3.15;;;1.67;;
18239;SDS011;9244;50.828;4.718;2023-08-21T09:50:26;5.20;;;1.50;;
18239;SDS011;9244;50.828;4.718;2023-08-21T09:52:54;4.60;;;1.65;;
18239;SDS011;9244;50.828;4.718;2023-08-21T09:55:21;3.80;;;1.63;;
18239;SDS011;9244;50.828;4.718;2023-08-21T09:57:47;4.43;;;1.58;;
18239;SDS011;9244;50.828;4.718;2023-08-21T10:00:22;4.15;;;2.20;;
18239;SDS011;9244;50.828;4.718;2023-08-21T10:02:49;4.35;;;1.70;;
18239;SDS011;9244;50.828;4.718;2023-08-21T10:05:16;3.92;;;1.60;;
18239;SDS011;9244;50.828;4.718;2023-08-21T10:07:42;3.55;;;1.70;;
18239;SDS011;9244;50.828;4.718;2023-08-21T10:10:12;4.95;;;1.90;;
18239;SDS011;9244;50.828;4.718;2023-08-21T10:12:39;6.03;;;1.50;;
18239;SDS011;9244;50.828;4.718;2023-08-21T10:15:06;3.05;;;1.25;;
18239;SDS011;9244;50.828;4.718;2023-08-21T10:17:34;3.90;;;1.70;;
18239;SDS011;9244;50.828;4.718;2023-08-21T10:20:04;4.82;;;1.98;;
18239;SDS011;9244;50.828;4.718;2023-08-21T10:22:46;3.90;;;1.50;;
18239;SDS011;9244;50.828;4.718;2023-08-21T10:25:14;4.47;;;1.95;;
18239;SDS011;9244;50.828;4.718;2023-08-21T10:27:55;3.10;;;1.40;;
18239;SDS011;9244;50.828;4.718;2023-08-21T10:30:25;4.35;;;1.77;;
18239;SDS011;9244;50.828;4.718;2023-08-21T10:32:53;4.80;;;1.48;;
18239;SDS011;9244;50.828;4.718;2023-08-21T10:35:21;5.53;;;1.88;;
18239;SDS011;9244;50.828;4.718;2023-08-21T10:40:38;4.57;;;1.48;;
18239;SDS011;9244;50.828;4.718;2023-08-21T10:43:36;5.15;;;1.60;;
18239;SDS011;9244;50.828;4.718;2023-08-21T10:46:11;4.72;;;1.42;;
18239;SDS011;9244;50.828;4.718;2023-08-21T10:48:38;3.50;;;1.20;;
18239;SDS011;9244;50.828;4.718;2023-08-21T10:51:05;2.28;;;1.30;;
18239;SDS011;9244;50.828;4.718;2023-08-21T10:53:32;2.80;;;1.42;;
18239;SDS011;9244;50.828;4.718;2023-08-21T10:56:04;3.25;;;1.38;;
18239;SDS011;9244;50.828;4.718;2023-08-21T10:58:34;4.80;;;1.35;;
18239;SDS011;9244;50.828;4.718;2023-08-21T11:01:06;3.95;;;1.48;;
18239;SDS011;9244;50.828;4.718;2023-08-21T11:03:31;5.10;;;1.30;;
18239;SDS011;9244;50.828;4.718;2023-08-21T11:06:03;1.83;;;1.20;;
18239;SDS011;9244;50.828;4.718;2023-08-21T11:08:31;4.25;;;1.40;;
18239;SDS011;9244;50.828;4.718;2023-08-21T11:10:58;2.20;;;1.25;;
18239;SDS011;9244;50.828;4.718;2023-08-21T11:13:24;3.20;;;1.40;;
18239;SDS011;9244;50.828;4.718;2023-08-21T11:15:57;2.80;;;1.20;;
18239;SDS011;9244;50.828;4.718;2023-08-21T11:18:29;3.72;;;1.42;;
18239;SDS011;9244;50.828;4.718;2023-08-21T11:21:02;3.63;;;1.27;;
18239;SDS011;9244;50.828;4.718;2023-08-21T11:23:33;3.45;;;1.17;;
18239;SDS011;9244;50.828;4.718;2023-08-21T11:26:00;4.55;;;1.30;;
18239;SDS011;9244;50.828;4.718;2023-08-21T11:28:28;2.65;;;1.30;;
18239;SDS011;9244;50.828;4.718;2023-08-21T11:30:55;2.97;;;1.52;;
18239;SDS011;9244;50.828;4.718;2023-08-21T11:33:21;3.17;;;1.42;;
18239;SDS011;9244;50.828;4.718;2023-08-21T11:35:47;2.53;;;1.27;;
18239;SDS011;9244;50.828;4.718;2023-08-21T11:38:17;4.45;;;1.45;;
18239;SDS011;9244;50.828;4.718;2023-08-21T11:40:51;4.65;;;1.52;;
18239;SDS011;9244;50.828;4.718;2023-08-21T11:43:21;3.10;;;1.40;;
18239;SDS011;9244;50.828;4.718;2023-08-21T11:45:47;4.28;;;1.67;;
18239;SDS011;9244;50.828;4.718;2023-08-21T11:48:14;2.78;;;1.17;;
18239;SDS011;9244;50.828;4.718;2023-08-21T11:50:39;3.92;;;1.38;;
18239;SDS011;9244;50.828;4.718;2023-08-21T11:53:05;3.75;;;1.33;;
18239;SDS011;9244;50.828;4.718;2023-08-21T11:55:31;2.47;;;1.45;;
18239;SDS011;9244;50.828;4.718;2023-08-21T11:57:57;4.82;;;1.58;;
18239;SDS011;9244;50.828;4.718;2023-08-21T12:00:28;4.85;;;1.42;;
18239;SDS011;9244;50.828;4.718;2023-08-21T12:02:55;2.58;;;1.40;;
18239;SDS011;9244;50.828;4.718;2023-08-21T12:05:22;3.47;;;1.83;;
18239;SDS011;9244;50.828;4.718;2023-08-21T12:07:48;3.40;;;1.42;;
18239;SDS011;9244;50.828;4.718;2023-08-21T12:10:14;4.55;;;1.60;;
18239;SDS011;9244;50.828;4.718;2023-08-21T12:12:46;2.80;;;1.35;;
18239;SDS011;9244;50.828;4.718;2023-08-21T12:15:12;2.15;;;1.20;;
18239;SDS011;9244;50.828;4.718;2023-08-21T12:17:37;3.38;;;1.60;;
18239;SDS011;9244;50.828;4.718;2023-08-21T12:20:03;4.22;;;1.90;;
18239;SDS011;9244;50.828;4.718;2023-08-21T12:22:35;2.70;;;1.52;;
18239;SDS011;9244;50.828;4.718;2023-08-21T12:25:02;3.45;;;1.63;;
18239;SDS011;9244;50.828;4.718;2023-08-21T12:27:29;3.90;;;1.38;;
18239;SDS011;9244;50.828;4.718;2023-08-21T12:29:54;5.53;;;1.90;;
18239;SDS011;9244;50.828;4.718;2023-08-21T12:32:20;5.93;;;1.98;;
18239;SDS011;9244;50.828;4.718;2023-08-21T12:34:45;2.47;;;1.23;;
18239;SDS011;9244;50.828;4.718;2023-08-21T12:37:11;2.70;;;1.90;;
18239;SDS011;9244;50.828;4.718;2023-08-21T12:39:37;3.92;;;1.27;;
18239;SDS011;9244;50.828;4.718;2023-08-21T12:42:02;6.00;;;2.13;;
18239;SDS011;9244;50.828;4.718;2023-08-21T12:44:29;2.85;;;1.85;;
18239;SDS011;9244;50.828;4.718;2023-08-21T12:46:55;5.28;;;1.48;;
18239;SDS011;9244;50.828;4.718;2023-08-21T12:49:20;4.57;;;1.48;;
18239;SDS011;9244;50.828;4.718;2023-08-21T12:51:46;2.90;;;1.40;;
18239;SDS011;9244;50.828;4.718;2023-08-21T12:54:11;3.58;;;1.52;;
18239;SDS011;9244;50.828;4.718;2023-08-21T12:56:37;5.88;;;1.80;;
18239;SDS011;9244;50.828;4.718;2023-08-21T12:59:11;2.70;;;1.40;;
18239;SDS011;9244;50.828;4.718;2023-08-21T13:01:37;4.72;;;1.52;;
18239;SDS011;9244;50.828;4.718;2023-08-21T13:04:03;2.92;;;1.23;;
18239;SDS011;9244;50.828;4.718;2023-08-21T13:06:29;3.50;;;1.30;;
18239;SDS011;9244;50.828;4.718;2023-08-21T13:08:54;3.58;;;1.60;;
18239;SDS011;9244;50.828;4.718;2023-08-21T13:11:20;3.08;;;1.40;;
18239;SDS011;9244;50.828;4.718;2023-08-21T13:13:46;3.90;;;1.48;;
18239;SDS011;9244;50.828;4.718;2023-08-21T13:16:12;4.80;;;1.67;;
18239;SDS011;9244;50.828;4.718;2023-08-21T13:18:37;3.80;;;1.52;;
18239;SDS011;9244;50.828;4.718;2023-08-21T13:21:03;3.00;;;1.58;;
18239;SDS011;9244;50.828;4.718;2023-08-21T13:23:29;4.60;;;1.50;;
18239;SDS011;9244;50.828;4.718;2023-08-21T13:25:55;2.58;;;1.40;;
18239;SDS011;9244;50.828;4.718;2023-08-21T13:28:22;4.40;;;1.30;;
18239;SDS011;9244;50.828;4.718;2023-08-21T13:30:48;3.00;;;1.60;;
18239;SDS011;9244;50.828;4.718;2023-08-21T13:33:14;4.93;;;1.60;;
18239;SDS011;9244;50.828;4.718;2023-08-21T13:35:40;5.00;;;1.45;;
18239;SDS011;9244;50.828;4.718;2023-08-21T13:38:06;4.05;;;1.75;;
18239;SDS011;9244;50.828;4.718;2023-08-21T13:40:33;3.80;;;1.65;;
18239;SDS011;9244;50.828;4.718;2023-08-21T13:42:59;3.40;;;1.48;;
18239;SDS011;9244;50.828;4.718;2023-08-21T13:45:25;3.42;;;1.40;;
18239;SDS011;9244;50.828;4.718;2023-08-21T13:47:50;5.80;;;1.63;;
18239;SDS011;9244;50.828;4.718;2023-08-21T13:50:17;4.53;;;1.40;;
18239;SDS011;9244;50.828;4.718;2023-08-21T13:52:46;3.13;;;1.55;;
18239;SDS011;9244;50.828;4.718;2023-08-21T13:55:12;2.90;;;1.42;;
18239;SDS011;9244;50.828;4.718;2023-08-21T13:57:39;2.88;;;1.38;;
18239;SDS011;9244;50.828;4.718;2023-08-21T14:00:06;2.15;;;1.30;;
18239;SDS011;9244;50.828;4.718;2023-08-21T14:02:36;2.70;;;1.60;;
18239;SDS011;9244;50.828;4.718;2023-08-21T14:05:03;2.22;;;1.42;;
18239;SDS011;9244;50.828;4.718;2023-08-21T14:07:30;5.45;;;1.70;;
18239;SDS011;9244;50.828;4.718;2023-08-21T14:09:56;2.35;;;1.50;;
18239;SDS011;9244;50.828;4.718;2023-08-21T14:12:22;3.85;;;1.58;;
18239;SDS011;9244;50.828;4.718;2023-08-21T14:14:47;5.60;;;1.60;;
18239;SDS011;9244;50.828;4.718;2023-08-21T14:17:13;3.25;;;1.52;;
18239;SDS011;9244;50.828;4.718;2023-08-21T14:19:39;2.55;;;1.45;;
18239;SDS011;9244;50.828;4.718;2023-08-21T14:22:05;6.15;;;1.65;;
18239;SDS011;9244;50.828;4.718;2023-08-21T14:24:31;4.15;;;1.45;;
18239;SDS011;9244;50.828;4.718;2023-08-21T14:26:56;5.63;;;1.85;;
18239;SDS011;9244;50.828;4.718;2023-08-21T14:29:22;3.17;;;1.40;;
18239;SDS011;9244;50.828;4.718;2023-08-21T14:31:47;6.57;;;1.65;;
18239;SDS011;9244;50.828;4.718;2023-08-21T14:34:14;2.83;;;1.70;;
18239;SDS011;9244;50.828;4.718;2023-08-21T14:36:40;4.43;;;2.17;;
18239;SDS011;9244;50.828;4.718;2023-08-21T14:39:07;3.65;;;1.60;;
18239;SDS011;9244;50.828;4.718;2023-08-21T14:41:35;5.32;;;1.90;;
18239;SDS011;9244;50.828;4.718;2023-08-21T14:44:02;2.50;;;1.67;;
18239;SDS011;9244;50.828;4.718;2023-08-21T14:46:28;3.85;;;1.70;;
18239;SDS011;9244;50.828;4.718;2023-08-21T14:48:53;3.70;;;1.45;;
18239;SDS011;9244;50.828;4.718;2023-08-21T14:51:19;4.55;;;1.58;;
18239;SDS011;9244;50.828;4.718;2023-08-21T14:53:44;5.80;;;1.95;;
18239;SDS011;9244;50.828;4.718;2023-08-21T14:56:10;4.38;;;1.60;;
18239;SDS011;9244;50.828;4.718;2023-08-21T14:58:36;3.95;;;1.50;;
18239;SDS011;9244;50.828;4.718;2023-08-21T15:01:01;4.57;;;1.88;;
18239;SDS011;9244;50.828;4.718;2023-08-21T15:03:28;4.43;;;1.73;;
18239;SDS011;9244;50.828;4.718;2023-08-21T15:05:53;3.08;;;1.73;;
18239;SDS011;9244;50.828;4.718;2023-08-21T15:08:19;3.22;;;1.70;;